Time;durP1;ratioP1;P1;durP2;ratioP2;P2;SDS_P1;SDS_P2;PMS_P1;PMS_P2;Temp;Humidity;BMP_temperature;BMP_pressure;BME280_temperature;BME280_humidity;BME280_pressure;Samples;Min_cycle;Max_cycle;Signal;HPM_P1;HPM_P2
2022/03/14 00:00:02;;;;;;;19.45;11.77;;;;;;;;;;4956329;29;20023;-69
2022/03/14 00:02:28;;;;;;;17.52;10.93;;;;;;;;;;4942701;29;20027;-70
2022/03/14 00:04:55;;;;;;;21.35;10.75;;;;;;;;;;4947465;29;20038;-71
2022/03/14 00:07:22;;;;;;;16.10;10.80;;;;;;;;;;4953857;29;20028;-74
2022/03/14 00:09:48;;;;;;;20.17;10.77;;;;;;;;;;4954303;29;20385;-70
2022/03/14 00:12:19;;;;;;;19.13;10.55;;;;;;;;;;4949265;29;20035;-70
2022/03/14 00:14:48;;;;;;;16.08;9.88;;;;;;;;;;4947120;29;20040;-72
2022/03/14 00:17:15;;;;;;;15.27;10.15;;;;;;;;;;4947291;29;20027;-70
2022/03/14 00:19:41;;;;;;;16.73;10.02;;;;;;;;;;4949906;29;20042;-70
2022/03/14 00:22:09;;;;;;;16.90;9.40;;;;;;;;;;4943702;29;20110;-72
2022/03/14 00:24:36;;;;;;;19.65;10.38;;;;;;;;;;4949245;29;20038;-70
2022/03/14 00:27:02;;;;;;;15.40;9.50;;;;;;;;;;4949626;29;20031;-70
2022/03/14 00:29:28;;;;;;;17.38;10.90;;;;;;;;;;4945469;29;20024;-71
2022/03/14 00:31:55;;;;;;;16.63;9.68;;;;;;;;;;4952718;28;20509;-70
2022/03/14 00:34:25;;;;;;;16.92;9.50;;;;;;;;;;4938128;29;20366;-70
2022/03/14 00:36:51;;;;;;;19.70;9.90;;;;;;;;;;4950395;29;20043;-70
2022/03/14 00:39:18;;;;;;;18.05;9.43;;;;;;;;;;4953335;29;20030;-69
2022/03/14 00:41:44;;;;;;;15.98;9.00;;;;;;;;;;4952395;29;20382;-71
2022/03/14 00:44:16;;;;;;;13.43;9.10;;;;;;;;;;4952007;29;20147;-72
2022/03/14 00:46:45;;;;;;;14.45;8.85;;;;;;;;;;4947647;29;20027;-70
2022/03/14 00:49:12;;;;;;;19.98;10.57;;;;;;;;;;4945156;29;20035;-73
2022/03/14 00:51:40;;;;;;;18.35;10.48;;;;;;;;;;4945268;29;20100;-71
2022/03/14 00:54:09;;;;;;;17.02;9.05;;;;;;;;;;4949180;29;20027;-72
2022/03/14 00:56:36;;;;;;;12.85;8.55;;;;;;;;;;4954139;29;20507;-69
2022/03/14 00:59:03;;;;;;;15.88;9.20;;;;;;;;;;4931566;29;20028;-69
2022/03/14 01:01:29;;;;;;;14.05;8.30;;;;;;;;;;4954917;29;20030;-70
2022/03/14 01:03:55;;;;;;;14.30;8.05;;;;;;;;;;4952464;29;20042;-70
2022/03/14 01:06:22;;;;;;;18.27;9.10;;;;;;;;;;4955182;29;20027;-69
2022/03/14 01:08:48;;;;;;;15.85;9.02;;;;;;;;;;4950223;29;20106;-71
2022/03/14 01:11:14;;;;;;;13.85;8.25;;;;;;;;;;4959193;29;20118;-70
2022/03/14 01:13:40;;;;;;;18.60;10.52;;;;;;;;;;4941064;29;20028;-70
2022/03/14 01:16:07;;;;;;;14.80;9.50;;;;;;;;;;4955325;29;20045;-70
2022/03/14 01:18:33;;;;;;;15.30;8.60;;;;;;;;;;4946730;29;20024;-70
2022/03/14 01:20:59;;;;;;;16.23;8.20;;;;;;;;;;4951198;29;20038;-71
2022/03/14 01:23:25;;;;;;;14.85;9.02;;;;;;;;;;4950494;29;20240;-71
2022/03/14 01:25:51;;;;;;;14.70;9.38;;;;;;;;;;4953601;29;20498;-70
2022/03/14 01:28:17;;;;;;;15.90;9.10;;;;;;;;;;4940520;29;20059;-71
2022/03/14 01:30:44;;;;;;;13.07;8.07;;;;;;;;;;4946710;28;20045;-70
2022/03/14 01:33:17;;;;;;;13.98;8.77;;;;;;;;;;4929855;29;20489;-70
2022/03/14 01:35:44;;;;;;;14.25;8.38;;;;;;;;;;4937962;29;20042;-70
2022/03/14 01:38:13;;;;;;;14.55;8.32;;;;;;;;;;4950937;29;20051;-69
2022/03/14 01:40:39;;;;;;;14.15;8.43;;;;;;;;;;4947590;29;20023;-70
2022/03/14 01:43:05;;;;;;;11.70;7.57;;;;;;;;;;4948804;29;20049;-71
2022/03/14 01:45:31;;;;;;;14.73;7.97;;;;;;;;;;4940606;29;20027;-69
2022/03/14 01:47:57;;;;;;;11.45;7.13;;;;;;;;;;4953882;29;20023;-72
2022/03/14 01:50:23;;;;;;;12.80;7.78;;;;;;;;;;4939436;29;20024;-69
2022/03/14 01:52:49;;;;;;;16.65;8.32;;;;;;;;;;4949390;29;20485;-73
2022/03/14 01:55:15;;;;;;;17.23;8.10;;;;;;;;;;4949958;29;20043;-72
2022/03/14 01:57:42;;;;;;;12.30;7.47;;;;;;;;;;4953063;29;20023;-70
2022/03/14 02:00:12;;;;;;;18.50;8.45;;;;;;;;;;4931852;29;20081;-71
2022/03/14 02:02:38;;;;;;;11.07;7.40;;;;;;;;;;4951063;29;20393;-73
2022/03/14 02:05:05;;;;;;;12.60;7.50;;;;;;;;;;4952649;29;20074;-72
2022/03/14 02:07:32;;;;;;;15.27;8.05;;;;;;;;;;4946388;29;20109;-70
2022/03/14 02:09:58;;;;;;;13.65;8.00;;;;;;;;;;4948998;29;20028;-71
2022/03/14 02:12:25;;;;;;;14.50;8.07;;;;;;;;;;4951185;29;20045;-71
2022/03/14 02:14:51;;;;;;;13.75;8.05;;;;;;;;;;4945266;29;20043;-69
2022/03/14 02:17:20;;;;;;;13.23;8.23;;;;;;;;;;4952171;29;20109;-70
2022/03/14 02:19:47;;;;;;;14.50;8.05;;;;;;;;;;4936705;29;20015;-70
2022/03/14 02:22:15;;;;;;;14.43;8.32;;;;;;;;;;4944366;29;20031;-72
2022/03/14 02:24:42;;;;;;;13.82;8.18;;;;;;;;;;4946126;28;20034;-70
2022/03/14 02:27:08;;;;;;;12.50;7.85;;;;;;;;;;4944062;29;20390;-70
2022/03/14 02:29:34;;;;;;;11.55;7.70;;;;;;;;;;4927986;29;20023;-70
2022/03/14 02:32:01;;;;;;;13.02;7.60;;;;;;;;;;4947005;28;20058;-70
2022/03/14 02:34:27;;;;;;;12.77;7.80;;;;;;;;;;4949630;29;20031;-68
2022/03/14 02:36:53;;;;;;;16.80;8.55;;;;;;;;;;4940671;29;20043;-73
2022/03/14 02:39:19;;;;;;;13.23;8.13;;;;;;;;;;4943045;29;20027;-70
2022/03/14 02:41:45;;;;;;;12.75;8.25;;;;;;;;;;4946981;29;20039;-69
2022/03/14 02:44:14;;;;;;;13.70;8.57;;;;;;;;;;4939784;29;20032;-70
2022/03/14 02:46:42;;;;;;;11.95;7.80;;;;;;;;;;4954871;29;20064;-70
2022/03/14 02:49:10;;;;;;;12.02;7.97;;;;;;;;;;4935147;29;20493;-74
2022/03/14 02:51:41;;;;;;;12.80;7.78;;;;;;;;;;4950839;29;20396;-72
2022/03/14 02:54:10;;;;;;;11.98;8.00;;;;;;;;;;4951161;29;20027;-70
2022/03/14 02:56:38;;;;;;;13.00;8.07;;;;;;;;;;4949346;29;20047;-68
2022/03/14 02:59:07;;;;;;;12.93;8.50;;;;;;;;;;4935927;29;20027;-70
2022/03/14 03:01:36;;;;;;;13.07;8.35;;;;;;;;;;4947229;29;20466;-73
2022/03/14 03:04:04;;;;;;;16.80;9.10;;;;;;;;;;4951832;29;20031;-69
2022/03/14 03:06:33;;;;;;;23.08;12.48;;;;;;;;;;4950646;29;20031;-69
2022/03/14 03:09:02;;;;;;;22.45;13.25;;;;;;;;;;4952595;29;20039;-73
2022/03/14 03:11:29;;;;;;;21.70;13.50;;;;;;;;;;4949026;29;20035;-73
2022/03/14 03:13:56;;;;;;;20.52;11.55;;;;;;;;;;4940239;29;20031;-73
2022/03/14 03:16:22;;;;;;;23.13;13.20;;;;;;;;;;4945099;29;20106;-70
2022/03/14 03:18:49;;;;;;;18.83;11.15;;;;;;;;;;4945319;29;20063;-70
2022/03/14 03:21:18;;;;;;;18.90;9.98;;;;;;;;;;4947782;29;20031;-72
2022/03/14 03:23:44;;;;;;;20.77;11.15;;;;;;;;;;4943879;29;20038;-70
2022/03/14 03:26:10;;;;;;;22.55;12.60;;;;;;;;;;4947985;29;20106;-70
2022/03/14 03:28:36;;;;;;;19.38;12.45;;;;;;;;;;4950151;29;20388;-70
2022/03/14 03:31:20;;;;;;;21.85;12.90;;;;;;;;;;4944703;29;20051;-70
2022/03/14 03:33:47;;;;;;;20.33;12.48;;;;;;;;;;4946027;29;20023;-70
2022/03/14 03:36:14;;;;;;;22.75;13.35;;;;;;;;;;4950452;28;20044;-69
2022/03/14 03:38:40;;;;;;;25.25;14.43;;;;;;;;;;4943583;29;20024;-70
2022/03/14 03:41:08;;;;;;;22.67;13.75;;;;;;;;;;4947768;29;20035;-69
2022/03/14 03:43:34;;;;;;;20.23;13.30;;;;;;;;;;4950044;29;20442;-69
2022/03/14 03:46:00;;;;;;;25.92;13.93;;;;;;;;;;4951816;29;20039;-69
2022/03/14 03:48:26;;;;;;;23.50;13.57;;;;;;;;;;4951474;29;20034;-69
2022/03/14 03:50:52;;;;;;;27.02;14.88;;;;;;;;;;4957044;29;20046;-70
2022/03/14 03:53:18;;;;;;;24.52;14.63;;;;;;;;;;4959396;29;20035;-70
2022/03/14 03:55:45;;;;;;;28.98;15.75;;;;;;;;;;4952878;29;20043;-69
2022/03/14 03:58:11;;;;;;;28.08;16.50;;;;;;;;;;4951294;29;20036;-70
2022/03/14 04:00:37;;;;;;;30.30;15.00;;;;;;;;;;4945317;29;20398;-73
2022/03/14 04:03:04;;;;;;;27.35;15.13;;;;;;;;;;4949167;29;20798;-68
2022/03/14 04:05:30;;;;;;;30.35;16.83;;;;;;;;;;4950953;29;20027;-71
2022/03/14 04:07:59;;;;;;;34.92;20.67;;;;;;;;;;4950256;29;20465;-72
2022/03/14 04:10:28;;;;;;;46.13;21.65;;;;;;;;;;4948467;29;20027;-69
2022/03/14 04:13:01;;;;;;;42.63;23.67;;;;;;;;;;4956338;29;20038;-73
2022/03/14 04:15:27;;;;;;;43.25;23.17;;;;;;;;;;4933569;29;20133;-73
2022/03/14 04:17:57;;;;;;;43.55;23.55;;;;;;;;;;4953420;29;20043;-70
2022/03/14 04:20:23;;;;;;;39.85;23.13;;;;;;;;;;4954949;29;20102;-70
2022/03/14 04:22:50;;;;;;;41.40;20.42;;;;;;;;;;4946541;29;20374;-70
2022/03/14 04:25:16;;;;;;;39.20;21.63;;;;;;;;;;4950020;29;20127;-71
2022/03/14 04:27:42;;;;;;;33.72;19.15;;;;;;;;;;4952212;29;20028;-72
2022/03/14 04:30:09;;;;;;;34.60;17.42;;;;;;;;;;4946576;29;20031;-71
2022/03/14 04:32:35;;;;;;;30.63;17.17;;;;;;;;;;4933428;29;20047;-72
2022/03/14 04:35:02;;;;;;;25.92;15.00;;;;;;;;;;4957285;29;20043;-72
2022/03/14 04:37:28;;;;;;;28.08;17.23;;;;;;;;;;4950624;29;20068;-70
2022/03/14 04:39:55;;;;;;;32.83;18.13;;;;;;;;;;4947951;29;20031;-73
2022/03/14 04:42:24;;;;;;;32.70;17.48;;;;;;;;;;4957110;29;20038;-71
2022/03/14 04:44:51;;;;;;;33.80;19.23;;;;;;;;;;4957300;29;20046;-72
2022/03/14 04:47:17;;;;;;;35.00;19.17;;;;;;;;;;4954099;29;20476;-71
2022/03/14 04:49:52;;;;;;;39.88;20.10;;;;;;;;;;4955878;28;20046;-68
2022/03/14 04:52:18;;;;;;;35.08;20.05;;;;;;;;;;4930241;29;20561;-70
2022/03/14 04:54:44;;;;;;;47.55;24.00;;;;;;;;;;4947654;29;20027;-70
2022/03/14 04:57:10;;;;;;;35.78;19.65;;;;;;;;;;4954779;29;20039;-70
2022/03/14 04:59:40;;;;;;;47.70;23.92;;;;;;;;;;4950574;29;20166;-70
2022/03/14 05:02:07;;;;;;;60.75;27.88;;;;;;;;;;4933904;29;20039;-73
2022/03/14 05:04:34;;;;;;;63.78;28.20;;;;;;;;;;4947236;29;20055;-70
2022/03/14 05:07:02;;;;;;;48.67;24.48;;;;;;;;;;4948669;29;20058;-74
2022/03/14 05:09:30;;;;;;;42.55;21.83;;;;;;;;;;4946657;29;20016;-69
2022/03/14 05:12:00;;;;;;;41.33;23.17;;;;;;;;;;4950503;29;20031;-70
2022/03/14 05:14:30;;;;;;;44.55;23.02;;;;;;;;;;4944464;29;20103;-70
2022/03/14 05:17:12;;;;;;;34.47;20.85;;;;;;;;;;4943100;29;20071;-72
2022/03/14 05:19:38;;;;;;;41.20;21.90;;;;;;;;;;4936067;29;20027;-74
2022/03/14 05:22:05;;;;;;;36.60;21.48;;;;;;;;;;4949716;29;20045;-72
2022/03/14 05:24:31;;;;;;;38.85;20.50;;;;;;;;;;4950128;29;20061;-69
2022/03/14 05:26:57;;;;;;;47.83;24.33;;;;;;;;;;4950966;29;20031;-74
2022/03/14 05:29:23;;;;;;;46.95;26.38;;;;;;;;;;4955695;29;20053;-71
2022/03/14 05:31:49;;;;;;;46.85;23.83;;;;;;;;;;4954826;28;20043;-70
2022/03/14 05:34:15;;;;;;;49.95;26.80;;;;;;;;;;4939918;29;20119;-78
2022/03/14 05:36:41;;;;;;;51.85;26.48;;;;;;;;;;4952593;29;20035;-77
2022/03/14 05:39:08;;;;;;;45.20;25.20;;;;;;;;;;4959998;29;20062;-76
2022/03/14 05:41:36;;;;;;;43.47;23.35;;;;;;;;;;4960452;29;20027;-71
2022/03/14 05:44:02;;;;;;;42.75;23.75;;;;;;;;;;4959116;29;20019;-74
2022/03/14 05:46:31;;;;;;;46.17;23.75;;;;;;;;;;4951752;29;20055;-73
2022/03/14 05:49:00;;;;;;;44.35;24.20;;;;;;;;;;4955473;29;20053;-77
2022/03/14 05:51:26;;;;;;;49.78;27.00;;;;;;;;;;4955755;29;20068;-72
2022/03/14 05:53:52;;;;;;;48.45;25.63;;;;;;;;;;4937897;29;20437;-75
2022/03/14 05:56:18;;;;;;;44.80;25.55;;;;;;;;;;4935607;29;20445;-70
2022/03/14 05:58:44;;;;;;;55.58;31.55;;;;;;;;;;4951081;29;20460;-74
2022/03/14 06:01:12;;;;;;;55.60;32.97;;;;;;;;;;4931849;29;20119;-74
2022/03/14 06:03:38;;;;;;;52.95;32.00;;;;;;;;;;4952634;29;20026;-72
2022/03/14 06:06:05;;;;;;;49.38;28.45;;;;;;;;;;4931025;29;20036;-73
2022/03/14 06:08:31;;;;;;;47.60;27.13;;;;;;;;;;4937621;29;20069;-71
2022/03/14 06:10:59;;;;;;;61.78;34.03;;;;;;;;;;4946975;28;20609;-74
2022/03/14 06:13:25;;;;;;;56.55;33.10;;;;;;;;;;4950441;28;20053;-72
2022/03/14 06:15:51;;;;;;;42.13;25.92;;;;;;;;;;4960312;29;20020;-74
2022/03/14 06:18:17;;;;;;;47.88;25.10;;;;;;;;;;4946707;29;20031;-70
2022/03/14 06:20:44;;;;;;;38.30;25.55;;;;;;;;;;4966954;28;20035;-73
2022/03/14 06:23:10;;;;;;;35.08;24.05;;;;;;;;;;4958926;29;20035;-73
2022/03/14 06:25:36;;;;;;;38.92;25.33;;;;;;;;;;4965129;29;20019;-73
2022/03/14 06:28:03;;;;;;;37.45;23.48;;;;;;;;;;4979486;23;20052;-70
2022/03/14 06:30:32;;;;;;;37.22;22.80;;;;;;;;;;4971932;29;20453;-71
2022/03/14 06:32:58;;;;;;;42.97;23.50;;;;;;;;;;4967891;28;20037;-71
2022/03/14 06:35:24;;;;;;;42.25;27.95;;;;;;;;;;4973298;29;20019;-72
2022/03/14 06:37:50;;;;;;;42.67;27.65;;;;;;;;;;4966572;28;20024;-73
2022/03/14 06:40:16;;;;;;;29.30;18.67;;;;;;;;;;4968826;29;20019;-72
2022/03/14 06:42:48;;;;;;;28.88;17.33;;;;;;;;;;4945493;29;20050;-73
2022/03/14 06:45:15;;;;;;;22.45;14.98;;;;;;;;;;4969384;28;20034;-68
2022/03/14 06:47:41;;;;;;;22.33;14.88;;;;;;;;;;4950314;29;20421;-76
2022/03/14 06:50:09;;;;;;;23.70;13.80;;;;;;;;;;4956492;29;20043;-69
2022/03/14 06:52:35;;;;;;;19.10;13.68;;;;;;;;;;4963129;29;20019;-71
2022/03/14 06:55:04;;;;;;;30.25;21.35;;;;;;;;;;4959841;29;20089;-70
2022/03/14 06:57:31;;;;;;;28.38;18.33;;;;;;;;;;4944300;29;20028;-73
2022/03/14 06:59:57;;;;;;;25.50;17.05;;;;;;;;;;4965871;29;20040;-75
2022/03/14 07:02:29;;;;;;;23.85;16.05;;;;;;;;;;4942006;29;20031;-68
2022/03/14 07:04:55;;;;;;;21.58;15.48;;;;;;;;;;4965370;29;20019;-70
2022/03/14 07:07:22;;;;;;;29.65;19.45;;;;;;;;;;4946935;29;20031;-71
2022/03/14 07:09:48;;;;;;;24.58;18.08;;;;;;;;;;4936401;29;20095;-78
2022/03/14 07:12:14;;;;;;;22.42;14.13;;;;;;;;;;4966678;28;20631;-78
2022/03/14 07:14:40;;;;;;;24.10;13.77;;;;;;;;;;4941732;29;20035;-79
2022/03/14 07:17:07;;;;;;;22.45;14.57;;;;;;;;;;4955127;28;20031;-71
2022/03/14 07:19:34;;;;;;;20.73;14.63;;;;;;;;;;4954504;29;20083;-74
2022/03/14 07:22:00;;;;;;;23.27;13.32;;;;;;;;;;4956235;28;20034;-76
2022/03/14 07:24:26;;;;;;;20.88;15.25;;;;;;;;;;4955813;28;20027;-75
2022/03/14 07:26:52;;;;;;;23.77;14.73;;;;;;;;;;4934548;29;20114;-76
2022/03/14 07:29:18;;;;;;;19.55;12.80;;;;;;;;;;4955714;29;20050;-75
2022/03/14 07:31:45;;;;;;;22.67;13.25;;;;;;;;;;4954843;28;20111;-78
2022/03/14 07:34:11;;;;;;;21.70;13.55;;;;;;;;;;4954749;28;20038;-76
2022/03/14 07:36:37;;;;;;;22.60;15.40;;;;;;;;;;4955865;28;20049;-73
2022/03/14 07:39:04;;;;;;;20.50;14.02;;;;;;;;;;4955902;28;20031;-73
2022/03/14 07:41:30;;;;;;;17.27;12.80;;;;;;;;;;4954383;28;20031;-73
2022/03/14 07:44:00;;;;;;;23.77;12.73;;;;;;;;;;4954982;28;20074;-73
2022/03/14 07:46:27;;;;;;;18.10;12.43;;;;;;;;;;4956098;28;20035;-74
2022/03/14 07:48:54;;;;;;;17.30;11.25;;;;;;;;;;4934768;29;20029;-74
2022/03/14 07:51:20;;;;;;;15.90;10.45;;;;;;;;;;4952561;28;20488;-74
2022/03/14 07:53:46;;;;;;;14.43;10.30;;;;;;;;;;4949827;28;20032;-79
2022/03/14 07:56:13;;;;;;;15.25;10.57;;;;;;;;;;4933365;29;20055;-74
2022/03/14 07:58:41;;;;;;;12.25;9.60;;;;;;;;;;4953477;28;20071;-76
2022/03/14 08:01:07;;;;;;;18.70;12.18;;;;;;;;;;4946545;28;20059;-74
2022/03/14 08:03:33;;;;;;;17.65;11.32;;;;;;;;;;4950394;28;20039;-75
2022/03/14 08:06:00;;;;;;;15.13;9.27;;;;;;;;;;4952483;28;20023;-75
2022/03/14 08:08:29;;;;;;;34.30;10.25;;;;;;;;;;4953735;28;20031;-78
2022/03/14 08:10:55;;;;;;;12.60;8.65;;;;;;;;;;4954513;28;20051;-80
2022/03/14 08:13:21;;;;;;;15.00;10.40;;;;;;;;;;4954669;28;20027;-76
2022/03/14 08:15:47;;;;;;;15.52;10.45;;;;;;;;;;4955996;28;20119;-70
2022/03/14 08:18:14;;;;;;;12.38;9.68;;;;;;;;;;4955327;28;20039;-74
2022/03/14 08:20:40;;;;;;;15.75;12.45;;;;;;;;;;4953792;28;20027;-72
2022/03/14 08:23:09;;;;;;;18.13;9.13;;;;;;;;;;4956172;28;20210;-73
2022/03/14 08:25:35;;;;;;;11.65;9.23;;;;;;;;;;4952656;28;20793;-82
2022/03/14 08:28:01;;;;;;;18.08;10.60;;;;;;;;;;4954008;29;20098;-75
2022/03/14 08:30:28;;;;;;;11.43;9.02;;;;;;;;;;4953774;28;20027;-77
2022/03/14 08:32:55;;;;;;;12.73;10.00;;;;;;;;;;4951395;28;20034;-72
2022/03/14 08:35:22;;;;;;;13.45;10.18;;;;;;;;;;4953849;28;20019;-71
2022/03/14 08:37:49;;;;;;;12.43;9.57;;;;;;;;;;4952739;28;20123;-71
2022/03/14 08:40:18;;;;;;;20.00;10.02;;;;;;;;;;4955210;28;20019;-72
2022/03/14 08:42:45;;;;;;;14.25;9.60;;;;;;;;;;4954332;28;20027;-72
2022/03/14 08:45:12;;;;;;;18.63;9.85;;;;;;;;;;4951637;28;20026;-72
2022/03/14 08:47:38;;;;;;;14.98;9.73;;;;;;;;;;4947973;29;20433;-73
2022/03/14 08:50:07;;;;;;;15.55;9.82;;;;;;;;;;4954104;28;20027;-78
2022/03/14 08:52:40;;;;;;;15.40;10.65;;;;;;;;;;4935128;29;20030;-76
2022/03/14 08:55:06;;;;;;;15.67;11.87;;;;;;;;;;4952418;28;20057;-80
2022/03/14 08:57:32;;;;;;;17.38;10.90;;;;;;;;;;4952410;28;20031;-76
2022/03/14 08:59:58;;;;;;;20.33;11.30;;;;;;;;;;4952697;28;20142;-75
2022/03/14 09:02:24;;;;;;;17.13;11.77;;;;;;;;;;4948862;28;20027;-77
2022/03/14 09:04:50;;;;;;;14.50;9.70;;;;;;;;;;4949530;28;20027;-76
2022/03/14 09:07:26;;;;;;;18.25;9.77;;;;;;;;;;4952260;28;20030;-75
2022/03/14 09:09:53;;;;;;;14.20;10.02;;;;;;;;;;4954355;28;20072;-76
2022/03/14 09:12:22;;;;;;;18.35;10.32;;;;;;;;;;4955387;28;20442;-73
2022/03/14 09:14:51;;;;;;;20.63;13.55;;;;;;;;;;4955517;28;20027;-74
2022/03/14 09:17:21;;;;;;;18.05;12.55;;;;;;;;;;4952121;29;20062;-72
2022/03/14 09:19:48;;;;;;;16.23;11.73;;;;;;;;;;4936434;29;20486;-71
2022/03/14 09:22:16;;;;;;;16.30;11.27;;;;;;;;;;4939303;28;20074;-72
2022/03/14 09:24:42;;;;;;;15.07;10.32;;;;;;;;;;4933400;29;20035;-75
2022/03/14 09:27:09;;;;;;;17.40;10.25;;;;;;;;;;4935952;29;20565;-72
2022/03/14 09:29:35;;;;;;;15.48;10.90;;;;;;;;;;4953265;28;20031;-73
2022/03/14 09:32:02;;;;;;;18.20;11.02;;;;;;;;;;4951839;28;20035;-76
2022/03/14 09:34:28;;;;;;;17.27;11.38;;;;;;;;;;4947323;28;20504;-73
2022/03/14 09:36:56;;;;;;;14.45;9.93;;;;;;;;;;4954046;28;20051;-72
2022/03/14 09:39:22;;;;;;;15.00;10.32;;;;;;;;;;4953612;28;20496;-72
2022/03/14 09:42:00;;;;;;;20.65;9.50;;;;;;;;;;4937875;29;20635;-70
2022/03/14 09:44:28;;;;;;;14.25;9.20;;;;;;;;;;4941148;28;20071;-75
2022/03/14 09:46:55;;;;;;;16.90;12.52;;;;;;;;;;4941712;29;20027;-73
2022/03/14 09:49:23;;;;;;;12.43;8.48;;;;;;;;;;4953061;28;20032;-76
2022/03/14 09:51:49;;;;;;;14.85;9.00;;;;;;;;;;4939085;29;20110;-74
2022/03/14 09:54:17;;;;;;;14.52;8.23;;;;;;;;;;4952125;28;20031;-74
2022/03/14 09:56:43;;;;;;;20.73;11.30;;;;;;;;;;4954304;28;20042;-75
2022/03/14 09:59:15;;;;;;;21.58;11.25;;;;;;;;;;4956594;28;20035;-74
2022/03/14 10:01:44;;;;;;;22.75;16.08;;;;;;;;;;4959413;28;20422;-74
2022/03/14 10:04:10;;;;;;;12.07;8.50;;;;;;;;;;4952487;28;20447;-73
2022/03/14 10:06:39;;;;;;;14.43;7.55;;;;;;;;;;4953560;28;20015;-74
2022/03/14 10:09:09;;;;;;;14.13;8.73;;;;;;;;;;4970234;28;20034;-70
2022/03/14 10:11:35;;;;;;;13.65;8.85;;;;;;;;;;4960406;28;20054;-77
2022/03/14 10:14:03;;;;;;;14.95;8.43;;;;;;;;;;4958996;28;20035;-76
2022/03/14 10:16:31;;;;;;;14.23;8.20;;;;;;;;;;4954917;28;20098;-74
2022/03/14 10:18:58;;;;;;;13.27;8.07;;;;;;;;;;4951977;28;20023;-75
2022/03/14 10:21:51;;;;;;;16.33;8.27;;;;;;;;;;4952841;28;20031;-76
2022/03/14 10:24:21;;;;;;;15.23;7.30;;;;;;;;;;4932659;29;20078;-71
2022/03/14 10:26:47;;;;;;;10.75;6.90;;;;;;;;;;4961271;28;20129;-70
2022/03/14 10:29:14;;;;;;;12.85;7.00;;;;;;;;;;4936131;29;20036;-73
2022/03/14 10:31:40;;;;;;;12.70;7.50;;;;;;;;;;4936905;28;20362;-72
2022/03/14 10:34:10;;;;;;;11.40;7.00;;;;;;;;;;4955701;28;20101;-69
2022/03/14 10:36:42;;;;;;;11.48;7.20;;;;;;;;;;4951718;28;20047;-68
2022/03/14 10:39:28;;;;;;;10.07;6.75;;;;;;;;;;4940948;29;20028;-71
2022/03/14 10:42:07;;;;;;;11.63;7.82;;;;;;;;;;4944349;29;20034;-70
2022/03/14 10:44:36;;;;;;;14.35;7.03;;;;;;;;;;4964103;29;20031;-71
2022/03/14 10:47:03;;;;;;;11.75;6.65;;;;;;;;;;4944610;28;20035;-73
2022/03/14 10:49:32;;;;;;;11.88;7.40;;;;;;;;;;4962788;29;20031;-71
2022/03/14 10:52:06;;;;;;;14.00;6.90;;;;;;;;;;4964692;29;20071;-78
2022/03/14 10:54:35;;;;;;;39.78;8.07;;;;;;;;;;4969038;29;20023;-72
2022/03/14 10:57:06;;;;;;;11.95;6.95;;;;;;;;;;4963104;28;20027;-72
2022/03/14 10:59:32;;;;;;;9.75;5.93;;;;;;;;;;4947536;29;20031;-75
2022/03/14 11:01:59;;;;;;;11.60;7.22;;;;;;;;;;4955921;28;20031;-74
2022/03/14 11:04:44;;;;;;;9.27;6.13;;;;;;;;;;4967937;29;20082;-69
2022/03/14 11:07:10;;;;;;;26.42;15.73;;;;;;;;;;4969706;29;20033;-69
2022/03/14 11:09:47;;;;;;;9.65;6.13;;;;;;;;;;4956897;28;20027;-75
2022/03/14 11:12:17;;;;;;;18.83;7.55;;;;;;;;;;4954059;28;20095;-73
2022/03/14 11:14:50;;;;;;;8.00;5.75;;;;;;;;;;4959617;29;20520;-74
2022/03/14 11:17:18;;;;;;;10.10;6.50;;;;;;;;;;4952639;29;20059;-73
2022/03/14 11:19:45;;;;;;;10.98;4.90;;;;;;;;;;4956565;29;20463;-71
2022/03/14 11:22:11;;;;;;;5.95;4.32;;;;;;;;;;4956230;29;20034;-75
2022/03/14 11:24:44;;;;;;;8.65;5.13;;;;;;;;;;4941164;29;20079;-76
2022/03/14 11:27:11;;;;;;;7.75;5.22;;;;;;;;;;4952946;29;20416;-74
2022/03/14 11:29:37;;;;;;;9.35;5.13;;;;;;;;;;4954839;29;20030;-76
2022/03/14 11:32:07;;;;;;;7.32;5.55;;;;;;;;;;4956998;29;20504;-77
2022/03/14 11:34:34;;;;;;;11.57;6.30;;;;;;;;;;4930698;29;20046;-72
2022/03/14 11:37:01;;;;;;;22.60;6.35;;;;;;;;;;4955944;29;20401;-75
2022/03/14 11:39:28;;;;;;;9.57;6.00;;;;;;;;;;4953354;29;20075;-75
2022/03/14 11:41:55;;;;;;;10.65;6.93;;;;;;;;;;4949544;29;20500;-74
2022/03/14 11:44:22;;;;;;;6.13;4.28;;;;;;;;;;4944360;29;20036;-74
2022/03/14 11:46:48;;;;;;;8.02;5.28;;;;;;;;;;4949057;29;20385;-74
2022/03/14 11:49:15;;;;;;;8.00;4.55;;;;;;;;;;4954148;29;20032;-75
2022/03/14 11:51:41;;;;;;;7.40;5.18;;;;;;;;;;4953995;29;20397;-72
2022/03/14 11:54:11;;;;;;;7.88;5.13;;;;;;;;;;4957164;29;20500;-71
2022/03/14 11:56:38;;;;;;;12.63;5.05;;;;;;;;;;4956132;29;20183;-74
2022/03/14 11:59:08;;;;;;;6.25;4.45;;;;;;;;;;4957376;28;20027;-72
2022/03/14 12:01:34;;;;;;;6.22;4.30;;;;;;;;;;4953645;29;20058;-77
2022/03/14 12:04:05;;;;;;;5.57;4.20;;;;;;;;;;4959769;29;20031;-74
2022/03/14 12:06:47;;;;;;;7.07;4.20;;;;;;;;;;4956430;29;20035;-71
2022/03/14 12:09:25;;;;;;;6.38;4.82;;;;;;;;;;4960119;29;20035;-75
2022/03/14 12:11:55;;;;;;;9.45;4.70;;;;;;;;;;4958055;29;20027;-72
2022/03/14 12:14:34;;;;;;;5.78;4.30;;;;;;;;;;4949644;28;20061;-73
2022/03/14 12:17:15;;;;;;;10.23;5.22;;;;;;;;;;4955664;29;20037;-73
2022/03/14 12:19:44;;;;;;;9.75;4.78;;;;;;;;;;4958440;29;20023;-72
2022/03/14 12:22:15;;;;;;;8.43;5.63;;;;;;;;;;4961038;28;20062;-76
2022/03/14 12:24:46;;;;;;;7.90;5.20;;;;;;;;;;4971952;29;20019;-71
2022/03/14 12:27:29;;;;;;;6.22;4.75;;;;;;;;;;4971486;29;20043;-71
2022/03/14 12:29:56;;;;;;;7.38;4.95;;;;;;;;;;4970046;29;20046;-72
2022/03/14 12:32:22;;;;;;;9.18;5.53;;;;;;;;;;4966484;29;20040;-75
2022/03/14 12:35:02;;;;;;;9.20;5.22;;;;;;;;;;4957288;29;20031;-72
2022/03/14 12:37:38;;;;;;;8.38;6.03;;;;;;;;;;4968660;29;20074;-75
2022/03/14 12:40:08;;;;;;;6.95;5.10;;;;;;;;;;4966319;29;20090;-72
2022/03/14 12:42:39;;;;;;;6.75;4.95;;;;;;;;;;4958188;29;20031;-76
2022/03/14 12:45:25;;;;;;;6.07;4.75;;;;;;;;;;4949664;29;20114;-72
2022/03/14 12:47:52;;;;;;;8.30;4.70;;;;;;;;;;4957420;29;20592;-72
2022/03/14 12:50:37;;;;;;;9.15;6.00;;;;;;;;;;4979870;23;20062;-79
2022/03/14 12:53:03;;;;;;;9.32;5.15;;;;;;;;;;4973066;28;20328;-75
2022/03/14 12:55:29;;;;;;;9.00;5.82;;;;;;;;;;4955338;28;20031;-74
2022/03/14 12:57:55;;;;;;;7.80;5.10;;;;;;;;;;4978061;28;20034;-77
2022/03/14 13:00:22;;;;;;;7.50;4.53;;;;;;;;;;4983005;28;20061;-76
2022/03/14 13:02:48;;;;;;;6.60;4.80;;;;;;;;;;4978601;28;20113;-75
2022/03/14 13:05:20;;;;;;;6.57;4.53;;;;;;;;;;4976476;28;20063;-75
2022/03/14 13:08:03;;;;;;;11.23;6.27;;;;;;;;;;4963448;28;20068;-70
2022/03/14 13:10:39;;;;;;;11.52;5.95;;;;;;;;;;4984589;28;20267;-73
2022/03/14 13:13:05;;;;;;;11.43;6.55;;;;;;;;;;4979439;28;20026;-74
2022/03/14 13:15:31;;;;;;;6.78;4.90;;;;;;;;;;4977863;28;20432;-74
2022/03/14 13:17:57;;;;;;;25.60;6.30;;;;;;;;;;4976854;28;20440;-72
2022/03/14 13:20:27;;;;;;;7.97;5.50;;;;;;;;;;4975071;28;20023;-76
2022/03/14 13:22:55;;;;;;;7.88;5.32;;;;;;;;;;4966135;28;20097;-74
2022/03/14 13:25:30;;;;;;;9.57;6.03;;;;;;;;;;4974935;28;20038;-74
2022/03/14 13:27:56;;;;;;;6.88;5.20;;;;;;;;;;4988666;28;20023;-72
2022/03/14 13:30:23;;;;;;;8.85;5.30;;;;;;;;;;4984672;28;20020;-71
2022/03/14 13:32:49;;;;;;;9.93;5.60;;;;;;;;;;4969321;28;20035;-73
2022/03/14 13:35:16;;;;;;;8.13;4.60;;;;;;;;;;4972619;29;20015;-75
2022/03/14 13:37:45;;;;;;;8.10;5.40;;;;;;;;;;4964648;29;20023;-73
2022/03/14 13:40:18;;;;;;;7.72;5.13;;;;;;;;;;4964676;29;20018;-73
2022/03/14 13:42:44;;;;;;;9.00;5.53;;;;;;;;;;4964218;29;20027;-75
2022/03/14 13:45:10;;;;;;;6.63;4.75;;;;;;;;;;4955919;29;20031;-74
2022/03/14 13:47:36;;;;;;;27.98;16.98;;;;;;;;;;4962058;29;20094;-74
2022/03/14 13:50:03;;;;;;;10.43;5.13;;;;;;;;;;4953369;29;20035;-76
2022/03/14 13:52:30;;;;;;;7.53;5.25;;;;;;;;;;4952068;29;20576;-76
2022/03/14 13:55:00;;;;;;;9.32;5.10;;;;;;;;;;4956484;29;20031;-74
2022/03/14 13:57:28;;;;;;;14.80;5.32;;;;;;;;;;4950536;29;20050;-73
2022/03/14 13:59:55;;;;;;;7.05;4.78;;;;;;;;;;4967137;28;20119;-74
2022/03/14 14:02:22;;;;;;;8.40;5.05;;;;;;;;;;4967539;28;20019;-71
2022/03/14 14:05:12;;;;;;;24.98;5.55;;;;;;;;;;4971310;28;20030;-76
2022/03/14 14:07:51;;;;;;;8.45;5.78;;;;;;;;;;4946903;29;20032;-76
2022/03/14 14:10:18;;;;;;;15.73;5.32;;;;;;;;;;4949678;29;20027;-75
2022/03/14 14:13:01;;;;;;;11.45;5.70;;;;;;;;;;4960603;29;20023;-76
2022/03/14 14:15:40;;;;;;;8.20;5.47;;;;;;;;;;4970264;29;20032;-76
2022/03/14 14:18:16;;;;;;;9.38;5.40;;;;;;;;;;4969072;28;20046;-76
2022/03/14 14:20:42;;;;;;;10.30;5.32;;;;;;;;;;4970469;28;20038;-75
2022/03/14 14:23:13;;;;;;;21.40;5.88;;;;;;;;;;4967630;29;20027;-76
2022/03/14 14:25:44;;;;;;;8.05;4.88;;;;;;;;;;4965976;29;20027;-75
2022/03/14 14:28:11;;;;;;;6.88;4.82;;;;;;;;;;4956621;29;20040;-75
2022/03/14 14:30:46;;;;;;;7.95;5.20;;;;;;;;;;4958156;28;20023;-78